sensor_id;sensor_type;location;lat;lon;timestamp;pressure;altitude;pressure_sealevel;temperature;humidity
52957;BME280;38819;42.692;23.342;2022-08-19T00:00:23;95006.34;;;23.91;53.75
52957;BME280;38819;42.692;23.342;2022-08-19T00:02:49;95008.34;;;23.91;53.50
52957;BME280;38819;42.692;23.342;2022-08-19T00:05:16;95015.00;;;23.90;53.22
52957;BME280;38819;42.692;23.342;2022-08-19T00:07:43;95022.91;;;23.91;53.19
52957;BME280;38819;42.692;23.342;2022-08-19T00:10:10;95021.69;;;23.89;53.89
52957;BME280;38819;42.692;23.342;2022-08-19T00:12:36;95013.41;;;23.85;54.14
52957;BME280;38819;42.692;23.342;2022-08-19T00:15:13;95020.84;;;23.81;54.02
52957;BME280;38819;42.692;23.342;2022-08-19T00:17:40;95021.28;;;23.83;54.09
52957;BME280;38819;42.692;23.342;2022-08-19T00:20:07;95028.63;;;23.72;55.01
52957;BME280;38819;42.692;23.342;2022-08-19T00:22:33;95028.63;;;23.72;55.11
52957;BME280;38819;42.692;23.342;2022-08-19T00:24:59;95034.50;;;23.66;55.37
52957;BME280;38819;42.692;23.342;2022-08-19T00:27:25;95026.22;;;23.66;55.20
52957;BME280;38819;42.692;23.342;2022-08-19T00:29:50;95033.75;;;23.70;55.00
52957;BME280;38819;42.692;23.342;2022-08-19T00:32:16;95039.22;;;23.62;55.29
52957;BME280;38819;42.692;23.342;2022-08-19T00:34:42;95031.69;;;23.56;55.39
52957;BME280;38819;42.692;23.342;2022-08-19T00:37:08;95029.34;;;23.61;55.29
52957;BME280;38819;42.692;23.342;2022-08-19T00:39:34;95026.19;;;23.59;55.65
52957;BME280;38819;42.692;23.342;2022-08-19T00:41:59;95025.72;;;23.54;55.20
52957;BME280;38819;42.692;23.342;2022-08-19T00:44:27;95015.94;;;23.60;54.95
52957;BME280;38819;42.692;23.342;2022-08-19T00:46:55;95018.78;;;23.71;54.01
52957;BME280;38819;42.692;23.342;2022-08-19T00:52:15;95014.03;;;23.67;53.07
52957;BME280;38819;42.692;23.342;2022-08-19T00:54:43;95019.13;;;23.65;53.47
52957;BME280;38819;42.692;23.342;2022-08-19T00:57:12;95032.16;;;23.68;54.00
52957;BME280;38819;42.692;23.342;2022-08-19T00:59:42;95021.09;;;23.65;53.33
52957;BME280;38819;42.692;23.342;2022-08-19T01:02:09;95023.13;;;23.72;54.17
52957;BME280;38819;42.692;23.342;2022-08-19T01:04:34;95027.00;;;23.63;53.60
52957;BME280;38819;42.692;23.342;2022-08-19T01:07:01;95024.59;;;23.58;52.56
52957;BME280;38819;42.692;23.342;2022-08-19T01:09:27;95028.19;;;23.62;52.45
52957;BME280;38819;42.692;23.342;2022-08-19T01:11:52;95025.81;;;23.61;52.09
52957;BME280;38819;42.692;23.342;2022-08-19T01:14:19;95026.94;;;23.56;53.12
52957;BME280;38819;42.692;23.342;2022-08-19T01:16:45;95027.66;;;23.46;52.89
52957;BME280;38819;42.692;23.342;2022-08-19T01:19:26;95022.88;;;23.39;53.23
52957;BME280;38819;42.692;23.342;2022-08-19T01:21:59;95025.97;;;23.34;52.85
52957;BME280;38819;42.692;23.342;2022-08-19T01:24:27;95025.13;;;23.30;53.49
52957;BME280;38819;42.692;23.342;2022-08-19T01:26:52;95015.72;;;23.35;52.83
52957;BME280;38819;42.692;23.342;2022-08-19T01:29:18;95015.34;;;23.36;52.50
52957;BME280;38819;42.692;23.342;2022-08-19T01:31:44;95016.47;;;23.31;53.38
52957;BME280;38819;42.692;23.342;2022-08-19T01:34:09;95018.34;;;23.20;53.11
52957;BME280;38819;42.692;23.342;2022-08-19T01:36:43;95019.16;;;23.21;53.08
52957;BME280;38819;42.692;23.342;2022-08-19T01:39:14;95008.88;;;23.18;53.25
52957;BME280;38819;42.692;23.342;2022-08-19T01:41:40;95005.72;;;23.16;53.67
52957;BME280;38819;42.692;23.342;2022-08-19T01:44:07;95006.81;;;23.07;54.24
52957;BME280;38819;42.692;23.342;2022-08-19T01:46:34;95015.16;;;23.15;53.97
52957;BME280;38819;42.692;23.342;2022-08-19T01:49:00;95021.75;;;23.06;54.53
52957;BME280;38819;42.692;23.342;2022-08-19T01:51:26;95025.56;;;22.98;54.71
52957;BME280;38819;42.692;23.342;2022-08-19T01:53:52;95030.59;;;22.89;55.16
52957;BME280;38819;42.692;23.342;2022-08-19T01:56:18;95031.34;;;22.86;55.28
52957;BME280;38819;42.692;23.342;2022-08-19T01:58:56;95029.75;;;22.85;55.13
52957;BME280;38819;42.692;23.342;2022-08-19T02:01:23;95027.75;;;22.82;55.73
52957;BME280;38819;42.692;23.342;2022-08-19T02:03:48;95034.44;;;22.81;55.90
52957;BME280;38819;42.692;23.342;2022-08-19T02:06:14;95037.63;;;22.86;55.47
52957;BME280;38819;42.692;23.342;2022-08-19T02:08:42;95032.13;;;22.86;56.19
52957;BME280;38819;42.692;23.342;2022-08-19T02:11:18;95027.78;;;22.85;56.27
52957;BME280;38819;42.692;23.342;2022-08-19T02:13:44;95023.84;;;22.83;56.38
52957;BME280;38819;42.692;23.342;2022-08-19T02:16:10;95034.06;;;22.82;56.56
52957;BME280;38819;42.692;23.342;2022-08-19T02:18:35;95032.34;;;22.70;56.93
52957;BME280;38819;42.692;23.342;2022-08-19T02:21:00;95021.34;;;22.70;56.97
52957;BME280;38819;42.692;23.342;2022-08-19T02:23:26;95029.13;;;22.65;57.44
52957;BME280;38819;42.692;23.342;2022-08-19T02:25:52;95034.63;;;22.65;57.08
52957;BME280;38819;42.692;23.342;2022-08-19T02:28:17;95025.97;;;22.63;56.30
52957;BME280;38819;42.692;23.342;2022-08-19T02:30:43;95025.22;;;22.66;56.00
52957;BME280;38819;42.692;23.342;2022-08-19T02:33:08;95039.72;;;22.63;55.53
52957;BME280;38819;42.692;23.342;2022-08-19T02:35:34;95032.47;;;22.47;55.37
52957;BME280;38819;42.692;23.342;2022-08-19T02:37:59;95034.53;;;22.27;55.57
52957;BME280;38819;42.692;23.342;2022-08-19T02:40:51;95038.06;;;22.28;56.28
52957;BME280;38819;42.692;23.342;2022-08-19T02:43:19;95039.34;;;22.07;56.57
52957;BME280;38819;42.692;23.342;2022-08-19T02:45:46;95035.09;;;22.13;56.57
52957;BME280;38819;42.692;23.342;2022-08-19T02:48:14;95040.19;;;22.11;56.94
52957;BME280;38819;42.692;23.342;2022-08-19T02:50:40;95044.84;;;22.07;56.66
52957;BME280;38819;42.692;23.342;2022-08-19T02:53:05;95043.63;;;22.05;56.62
52957;BME280;38819;42.692;23.342;2022-08-19T02:55:32;95044.72;;;22.00;56.84
52957;BME280;38819;42.692;23.342;2022-08-19T02:57:58;95039.59;;;21.98;56.93
52957;BME280;38819;42.692;23.342;2022-08-19T03:00:25;95045.66;;;22.08;56.62
52957;BME280;38819;42.692;23.342;2022-08-19T03:02:51;95047.38;;;22.19;57.09
52957;BME280;38819;42.692;23.342;2022-08-19T03:05:17;95043.44;;;22.17;57.13
52957;BME280;38819;42.692;23.342;2022-08-19T03:07:43;95044.22;;;22.17;57.25
52957;BME280;38819;42.692;23.342;2022-08-19T03:10:08;95040.69;;;22.17;57.19
52957;BME280;38819;42.692;23.342;2022-08-19T03:12:38;95034.78;;;22.18;57.12
52957;BME280;38819;42.692;23.342;2022-08-19T03:15:06;95037.94;;;22.17;57.03
52957;BME280;38819;42.692;23.342;2022-08-19T03:17:33;95034.38;;;22.16;57.75
52957;BME280;38819;42.692;23.342;2022-08-19T03:19:58;95030.38;;;22.10;57.63
52957;BME280;38819;42.692;23.342;2022-08-19T03:22:24;95022.50;;;22.09;57.55
52957;BME280;38819;42.692;23.342;2022-08-19T03:24:50;95037.84;;;22.13;57.69
52957;BME280;38819;42.692;23.342;2022-08-19T03:27:15;95032.25;;;22.06;58.01
52957;BME280;38819;42.692;23.342;2022-08-19T03:29:42;95034.59;;;22.04;58.04
52957;BME280;38819;42.692;23.342;2022-08-19T03:32:09;95036.47;;;22.00;58.48
52957;BME280;38819;42.692;23.342;2022-08-19T03:34:36;95028.56;;;21.95;58.99
52957;BME280;38819;42.692;23.342;2022-08-19T03:37:08;95041.56;;;21.98;58.86
52957;BME280;38819;42.692;23.342;2022-08-19T03:39:36;95040.72;;;21.94;58.79
52957;BME280;38819;42.692;23.342;2022-08-19T03:42:03;95047.94;;;22.02;58.68
52957;BME280;38819;42.692;23.342;2022-08-19T03:44:29;95055.22;;;21.91;58.72
52957;BME280;38819;42.692;23.342;2022-08-19T03:46:56;95052.19;;;21.99;58.89
52957;BME280;38819;42.692;23.342;2022-08-19T03:49:25;95053.66;;;21.93;58.63
52957;BME280;38819;42.692;23.342;2022-08-19T03:51:52;95057.28;;;21.97;59.29
52957;BME280;38819;42.692;23.342;2022-08-19T03:54:20;95060.81;;;21.98;59.36
52957;BME280;38819;42.692;23.342;2022-08-19T03:56:48;95068.28;;;21.97;59.70
52957;BME280;38819;42.692;23.342;2022-08-19T03:59:23;95069.75;;;21.91;59.60
52957;BME280;38819;42.692;23.342;2022-08-19T04:01:51;95067.88;;;21.95;59.48
52957;BME280;38819;42.692;23.342;2022-08-19T04:04:16;95072.50;;;21.91;59.60
52957;BME280;38819;42.692;23.342;2022-08-19T04:06:43;95077.31;;;21.98;58.76
52957;BME280;38819;42.692;23.342;2022-08-19T04:09:10;95070.34;;;22.04;59.35
52957;BME280;38819;42.692;23.342;2022-08-19T04:11:44;95075.47;;;22.06;58.41
52957;BME280;38819;42.692;23.342;2022-08-19T04:14:18;95073.97;;;22.12;58.89
52957;BME280;38819;42.692;23.342;2022-08-19T04:16:44;95074.88;;;22.19;58.54
52957;BME280;38819;42.692;23.342;2022-08-19T04:19:11;95074.88;;;22.19;58.76
52957;BME280;38819;42.692;23.342;2022-08-19T04:21:36;95088.31;;;22.25;58.73
52957;BME280;38819;42.692;23.342;2022-08-19T04:24:03;95085.56;;;22.25;58.89
52957;BME280;38819;42.692;23.342;2022-08-19T04:26:33;95081.66;;;22.26;58.48
52957;BME280;38819;42.692;23.342;2022-08-19T04:29:00;95093.53;;;22.30;58.61
52957;BME280;38819;42.692;23.342;2022-08-19T04:31:29;95089.25;;;22.32;57.96
52957;BME280;38819;42.692;23.342;2022-08-19T04:33:56;95084.25;;;22.42;57.64
52957;BME280;38819;42.692;23.342;2022-08-19T04:36:34;95090.66;;;22.49;57.33
52957;BME280;38819;42.692;23.342;2022-08-19T04:39:02;95089.13;;;22.52;57.57
52957;BME280;38819;42.692;23.342;2022-08-19T04:41:27;95090.09;;;22.36;58.06
52957;BME280;38819;42.692;23.342;2022-08-19T04:44:13;95081.13;;;22.43;57.86
52957;BME280;38819;42.692;23.342;2022-08-19T04:46:39;95088.19;;;22.41;57.62
52957;BME280;38819;42.692;23.342;2022-08-19T04:49:06;95083.72;;;22.29;57.94
52957;BME280;38819;42.692;23.342;2022-08-19T04:51:33;95084.25;;;22.15;57.95
52957;BME280;38819;42.692;23.342;2022-08-19T04:53:59;95088.31;;;22.25;58.10
52957;BME280;38819;42.692;23.342;2022-08-19T04:56:26;95091.75;;;22.18;57.82
52957;BME280;38819;42.692;23.342;2022-08-19T04:58:53;95088.72;;;22.27;57.57
52957;BME280;38819;42.692;23.342;2022-08-19T05:01:25;95094.81;;;22.36;57.39
52957;BME280;38819;42.692;23.342;2022-08-19T05:03:51;95095.97;;;22.35;57.44
52957;BME280;38819;42.692;23.342;2022-08-19T05:06:19;95094.94;;;22.47;57.11
52957;BME280;38819;42.692;23.342;2022-08-19T05:08:46;95097.91;;;22.61;56.71
52957;BME280;38819;42.692;23.342;2022-08-19T05:13:44;95090.91;;;22.67;56.52
52957;BME280;38819;42.692;23.342;2022-08-19T05:16:11;95100.00;;;22.71;56.84
52957;BME280;38819;42.692;23.342;2022-08-19T05:18:38;95089.75;;;22.72;56.78
52957;BME280;38819;42.692;23.342;2022-08-19T05:21:22;95097.31;;;22.79;56.85
52957;BME280;38819;42.692;23.342;2022-08-19T05:24:07;95095.06;;;22.84;56.42
52957;BME280;38819;42.692;23.342;2022-08-19T05:26:34;95097.88;;;22.91;56.33
52957;BME280;38819;42.692;23.342;2022-08-19T05:29:00;95084.47;;;22.90;56.25
52957;BME280;38819;42.692;23.342;2022-08-19T05:31:25;95100.41;;;23.04;56.02
52957;BME280;38819;42.692;23.342;2022-08-19T05:33:50;95102.75;;;23.05;55.84
52957;BME280;38819;42.692;23.342;2022-08-19T05:36:16;95095.00;;;23.11;55.91
52957;BME280;38819;42.692;23.342;2022-08-19T05:38:41;95098.94;;;23.13;55.85
52957;BME280;38819;42.692;23.342;2022-08-19T05:41:13;95102.50;;;23.14;55.89
52957;BME280;38819;42.692;23.342;2022-08-19T05:43:40;95107.34;;;23.24;56.01
52957;BME280;38819;42.692;23.342;2022-08-19T05:46:07;95100.28;;;23.27;55.76
52957;BME280;38819;42.692;23.342;2022-08-19T05:48:34;95100.41;;;23.38;55.17
52957;BME280;38819;42.692;23.342;2022-08-19T05:51:04;95104.78;;;23.42;55.07
52957;BME280;38819;42.692;23.342;2022-08-19T05:53:31;95098.97;;;23.51;54.94
52957;BME280;38819;42.692;23.342;2022-08-19T05:55:56;95086.03;;;23.59;54.92
52957;BME280;38819;42.692;23.342;2022-08-19T05:58:22;95092.84;;;23.72;54.61
52957;BME280;38819;42.692;23.342;2022-08-19T06:00:49;95088.16;;;23.76;54.48
52957;BME280;38819;42.692;23.342;2022-08-19T06:03:14;95092.09;;;23.79;54.11
52957;BME280;38819;42.692;23.342;2022-08-19T06:05:40;95092.25;;;23.90;54.01
52957;BME280;38819;42.692;23.342;2022-08-19T06:08:06;95100.19;;;23.98;53.61
52957;BME280;38819;42.692;23.342;2022-08-19T06:10:32;95102.16;;;23.98;53.70
52957;BME280;38819;42.692;23.342;2022-08-19T06:12:58;95104.91;;;23.98;53.15
52957;BME280;38819;42.692;23.342;2022-08-19T06:15:26;95095.03;;;23.97;53.51
52957;BME280;38819;42.692;23.342;2022-08-19T06:17:54;95099.91;;;24.11;52.50
52957;BME280;38819;42.692;23.342;2022-08-19T06:20:20;95103.44;;;24.11;53.04
52957;BME280;38819;42.692;23.342;2022-08-19T06:22:47;95105.31;;;24.00;53.41
52957;BME280;38819;42.692;23.342;2022-08-19T06:25:17;95108.50;;;24.05;53.21
52957;BME280;38819;42.692;23.342;2022-08-19T06:27:43;95105.38;;;24.07;52.75
52957;BME280;38819;42.692;23.342;2022-08-19T06:30:08;95100.66;;;24.08;52.66
52957;BME280;38819;42.692;23.342;2022-08-19T06:32:35;95104.31;;;24.22;52.36
52957;BME280;38819;42.692;23.342;2022-08-19T06:35:00;95105.91;;;24.27;52.58
52957;BME280;38819;42.692;23.342;2022-08-19T06:37:26;95095.28;;;24.29;52.08
52957;BME280;38819;42.692;23.342;2022-08-19T06:39:51;95098.09;;;24.36;52.25
52957;BME280;38819;42.692;23.342;2022-08-19T06:42:17;95096.97;;;24.45;52.05
52957;BME280;38819;42.692;23.342;2022-08-19T06:44:45;95100.91;;;24.47;52.10
52957;BME280;38819;42.692;23.342;2022-08-19T06:47:17;95097.13;;;24.66;51.38
52957;BME280;38819;42.692;23.342;2022-08-19T06:49:44;95097.88;;;24.59;51.39
52957;BME280;38819;42.692;23.342;2022-08-19T06:52:10;95091.88;;;24.54;51.13
52957;BME280;38819;42.692;23.342;2022-08-19T06:54:40;95091.59;;;24.66;51.22
52957;BME280;38819;42.692;23.342;2022-08-19T06:57:06;95102.75;;;24.84;50.72
52957;BME280;38819;42.692;23.342;2022-08-19T06:59:32;95099.13;;;24.76;51.05
52957;BME280;38819;42.692;23.342;2022-08-19T07:02:02;95093.69;;;24.91;51.11
52957;BME280;38819;42.692;23.342;2022-08-19T07:04:32;95111.91;;;25.03;50.86
52957;BME280;38819;42.692;23.342;2022-08-19T07:07:00;95106.38;;;25.03;50.52
52957;BME280;38819;42.692;23.342;2022-08-19T07:09:26;95114.63;;;24.99;50.41
52957;BME280;38819;42.692;23.342;2022-08-19T07:11:53;95113.09;;;25.12;49.98
52957;BME280;38819;42.692;23.342;2022-08-19T07:14:24;95108.75;;;25.11;50.19
52957;BME280;38819;42.692;23.342;2022-08-19T07:16:51;95109.13;;;25.06;50.28
52957;BME280;38819;42.692;23.342;2022-08-19T07:19:20;95108.38;;;25.20;49.81
52957;BME280;38819;42.692;23.342;2022-08-19T07:21:48;95115.56;;;25.36;49.47
52957;BME280;38819;42.692;23.342;2022-08-19T07:24:15;95113.22;;;25.48;49.39
52957;BME280;38819;42.692;23.342;2022-08-19T07:26:42;95109.66;;;25.37;49.53
52957;BME280;38819;42.692;23.342;2022-08-19T07:29:10;95100.56;;;25.33;49.64
52957;BME280;38819;42.692;23.342;2022-08-19T07:31:35;95111.25;;;25.38;49.52
52957;BME280;38819;42.692;23.342;2022-08-19T07:34:04;95108.09;;;25.36;49.85
52957;BME280;38819;42.692;23.342;2022-08-19T07:36:35;95097.81;;;25.47;49.62
52957;BME280;38819;42.692;23.342;2022-08-19T07:39:05;95106.16;;;25.55;48.73
52957;BME280;38819;42.692;23.342;2022-08-19T07:41:31;95093.91;;;25.63;48.97
52957;BME280;38819;42.692;23.342;2022-08-19T07:43:59;95098.66;;;25.80;48.34
52957;BME280;38819;42.692;23.342;2022-08-19T07:46:28;95102.22;;;25.77;48.10
52957;BME280;38819;42.692;23.342;2022-08-19T07:48:56;95102.22;;;25.81;48.38
52957;BME280;38819;42.692;23.342;2022-08-19T07:51:22;95108.56;;;25.96;48.19
52957;BME280;38819;42.692;23.342;2022-08-19T07:53:48;95104.22;;;26.05;48.41
52957;BME280;38819;42.692;23.342;2022-08-19T07:56:15;95107.00;;;26.09;47.92
52957;BME280;38819;42.692;23.342;2022-08-19T07:58:42;95098.69;;;26.20;47.53
52957;BME280;38819;42.692;23.342;2022-08-19T08:01:13;95102.63;;;26.26;47.29
52957;BME280;38819;42.692;23.342;2022-08-19T08:03:39;95105.38;;;26.40;46.85
52957;BME280;38819;42.692;23.342;2022-08-19T08:06:23;95100.63;;;26.48;46.58
52957;BME280;38819;42.692;23.342;2022-08-19T08:09:08;95098.63;;;26.56;46.19
52957;BME280;38819;42.692;23.342;2022-08-19T08:12:05;95098.66;;;26.67;45.85
52957;BME280;38819;42.692;23.342;2022-08-19T08:16:54;95096.63;;;26.82;45.38
52957;BME280;38819;42.692;23.342;2022-08-19T08:19:21;95089.09;;;26.82;45.36
52957;BME280;38819;42.692;23.342;2022-08-19T08:21:48;95083.56;;;26.78;45.49
52957;BME280;38819;42.692;23.342;2022-08-19T08:24:14;95085.53;;;26.82;45.33
52957;BME280;38819;42.692;23.342;2022-08-19T08:26:40;95085.13;;;26.87;45.22
52957;BME280;38819;42.692;23.342;2022-08-19T08:29:06;95081.91;;;26.99;45.29
52957;BME280;38819;42.692;23.342;2022-08-19T08:31:35;95077.56;;;27.02;44.89
52957;BME280;38819;42.692;23.342;2022-08-19T08:34:01;95072.78;;;27.02;44.98
52957;BME280;38819;42.692;23.342;2022-08-19T08:36:26;95078.66;;;27.11;44.95
52957;BME280;38819;42.692;23.342;2022-08-19T08:38:52;95075.84;;;27.26;44.63
52957;BME280;38819;42.692;23.342;2022-08-19T08:44:05;95070.22;;;27.44;42.55
52957;BME280;38819;42.692;23.342;2022-08-19T08:46:44;95075.31;;;27.52;42.65
52957;BME280;38819;42.692;23.342;2022-08-19T08:49:29;95064.22;;;27.52;42.12
52957;BME280;38819;42.692;23.342;2022-08-19T08:54:36;95058.19;;;27.65;41.34
52957;BME280;38819;42.692;23.342;2022-08-19T08:57:10;95072.00;;;27.76;40.24
52957;BME280;38819;42.692;23.342;2022-08-19T08:59:40;95063.28;;;27.73;40.62
52957;BME280;38819;42.692;23.342;2022-08-19T09:02:07;95064.03;;;27.78;40.91
52957;BME280;38819;42.692;23.342;2022-08-19T09:04:35;95056.47;;;27.85;41.04
52957;BME280;38819;42.692;23.342;2022-08-19T09:09:50;95045.56;;;28.09;40.54
52957;BME280;38819;42.692;23.342;2022-08-19T09:16:10;95047.75;;;28.32;40.05
52957;BME280;38819;42.692;23.342;2022-08-19T09:18:40;95036.53;;;28.39;38.78
52957;BME280;38819;42.692;23.342;2022-08-19T09:21:06;95035.28;;;28.48;38.26
52957;BME280;38819;42.692;23.342;2022-08-19T09:23:34;95031.31;;;28.49;38.09
52957;BME280;38819;42.692;23.342;2022-08-19T09:25:59;95033.16;;;28.62;37.97
52957;BME280;38819;42.692;23.342;2022-08-19T09:28:24;95031.47;;;28.72;36.96
52957;BME280;38819;42.692;23.342;2022-08-19T09:30:51;95031.81;;;28.74;36.06
52957;BME280;38819;42.692;23.342;2022-08-19T09:33:16;95027.75;;;28.82;35.26
52957;BME280;38819;42.692;23.342;2022-08-19T09:35:42;95023.72;;;28.87;34.74
52957;BME280;38819;42.692;23.342;2022-08-19T09:38:08;95028.47;;;28.90;34.74
52957;BME280;38819;42.692;23.342;2022-08-19T09:40:33;95017.25;;;28.97;34.83
52957;BME280;38819;42.692;23.342;2022-08-19T09:42:59;95023.13;;;29.03;35.08
52957;BME280;38819;42.692;23.342;2022-08-19T09:45:28;95023.41;;;29.12;34.18
52957;BME280;38819;42.692;23.342;2022-08-19T09:47:53;95017.00;;;29.19;33.81
52957;BME280;38819;42.692;23.342;2022-08-19T09:50:19;95019.66;;;29.26;33.50
52957;BME280;38819;42.692;23.342;2022-08-19T09:52:45;95016.47;;;29.28;33.54
52957;BME280;38819;42.692;23.342;2022-08-19T09:55:11;95017.19;;;29.32;34.04
52957;BME280;38819;42.692;23.342;2022-08-19T09:57:37;95013.91;;;29.41;33.63
52957;BME280;38819;42.692;23.342;2022-08-19T10:00:06;95015.38;;;29.49;34.32
52957;BME280;38819;42.692;23.342;2022-08-19T10:02:32;95010.88;;;29.55;33.76
52957;BME280;38819;42.692;23.342;2022-08-19T10:04:57;95001.22;;;29.63;34.13
52957;BME280;38819;42.692;23.342;2022-08-19T10:07:43;95004.00;;;29.63;33.40
52957;BME280;38819;42.692;23.342;2022-08-19T10:10:09;94988.81;;;29.68;33.00
52957;BME280;38819;42.692;23.342;2022-08-19T10:12:35;94983.13;;;29.75;33.43
52957;BME280;38819;42.692;23.342;2022-08-19T10:15:01;94988.66;;;29.79;33.29
52957;BME280;38819;42.692;23.342;2022-08-19T10:17:26;94983.84;;;29.83;33.02
52957;BME280;38819;42.692;23.342;2022-08-19T10:19:52;94992.13;;;29.86;33.31
52957;BME280;38819;42.692;23.342;2022-08-19T10:22:18;94986.13;;;29.88;33.15
52957;BME280;38819;42.692;23.342;2022-08-19T10:24:46;94987.28;;;29.90;33.87
52957;BME280;38819;42.692;23.342;2022-08-19T10:27:12;94986.84;;;29.92;33.84
52957;BME280;38819;42.692;23.342;2022-08-19T10:29:39;94986.00;;;29.95;33.72
52957;BME280;38819;42.692;23.342;2022-08-19T10:32:06;94975.59;;;29.99;32.71
52957;BME280;38819;42.692;23.342;2022-08-19T10:34:34;94979.03;;;30.07;32.81
52957;BME280;38819;42.692;23.342;2022-08-19T10:37:04;94975.81;;;30.08;32.82
52957;BME280;38819;42.692;23.342;2022-08-19T10:39:34;94967.78;;;30.14;33.27
52957;BME280;38819;42.692;23.342;2022-08-19T10:42:06;94971.28;;;30.18;33.32
52957;BME280;38819;42.692;23.342;2022-08-19T10:44:33;94968.47;;;30.18;33.41
52957;BME280;38819;42.692;23.342;2022-08-19T10:47:00;94966.78;;;30.24;33.23
52957;BME280;38819;42.692;23.342;2022-08-19T10:49:26;94963.22;;;30.24;33.06
52957;BME280;38819;42.692;23.342;2022-08-19T10:51:51;94961.91;;;30.28;33.33
52957;BME280;38819;42.692;23.342;2022-08-19T10:54:36;94963.06;;;30.31;33.22
52957;BME280;38819;42.692;23.342;2022-08-19T10:57:20;94964.59;;;30.36;32.78
52957;BME280;38819;42.692;23.342;2022-08-19T10:59:49;94960.53;;;30.40;33.04
52957;BME280;38819;42.692;23.342;2022-08-19T11:02:15;94960.91;;;30.42;33.07
52957;BME280;38819;42.692;23.342;2022-08-19T11:04:40;94956.47;;;30.45;33.30
52957;BME280;38819;42.692;23.342;2022-08-19T11:07:07;94958.75;;;30.50;32.85
52957;BME280;38819;42.692;23.342;2022-08-19T11:09:37;94958.63;;;30.57;33.62
52957;BME280;38819;42.692;23.342;2022-08-19T11:12:04;94954.53;;;30.62;33.39
52957;BME280;38819;42.692;23.342;2022-08-19T11:14:30;94956.75;;;30.71;32.78
52957;BME280;38819;42.692;23.342;2022-08-19T11:16:58;94951.78;;;30.78;32.21
52957;BME280;38819;42.692;23.342;2022-08-19T11:19:23;94948.50;;;30.83;32.37
52957;BME280;38819;42.692;23.342;2022-08-19T11:21:50;94947.97;;;30.89;32.02
52957;BME280;38819;42.692;23.342;2022-08-19T11:24:22;94943.56;;;30.91;31.97
52957;BME280;38819;42.692;23.342;2022-08-19T11:26:49;94946.34;;;30.91;31.81
52957;BME280;38819;42.692;23.342;2022-08-19T11:29:16;94937.50;;;30.96;32.08
52957;BME280;38819;42.692;23.342;2022-08-19T11:31:45;94932.63;;;31.00;31.82
52957;BME280;38819;42.692;23.342;2022-08-19T11:34:14;94938.91;;;31.05;31.84
52957;BME280;38819;42.692;23.342;2022-08-19T11:36:43;94929.75;;;31.04;31.63
52957;BME280;38819;42.692;23.342;2022-08-19T11:39:11;94928.78;;;30.94;31.41
52957;BME280;38819;42.692;23.342;2022-08-19T11:41:37;94928.34;;;30.96;31.74
52957;BME280;38819;42.692;23.342;2022-08-19T11:44:03;94925.91;;;30.98;31.57
52957;BME280;38819;42.692;23.342;2022-08-19T11:46:30;94924.75;;;30.95;31.56
52957;BME280;38819;42.692;23.342;2022-08-19T11:48:59;94921.53;;;30.97;31.70
52957;BME280;38819;42.692;23.342;2022-08-19T11:51:28;94919.91;;;30.99;31.90
52957;BME280;38819;42.692;23.342;2022-08-19T11:53:55;94920.16;;;31.05;32.19
52957;BME280;38819;42.692;23.342;2022-08-19T11:56:22;94919.56;;;30.97;31.72
52957;BME280;38819;42.692;23.342;2022-08-19T11:58:49;94918.97;;;31.06;32.50
52957;BME280;38819;42.692;23.342;2022-08-19T12:01:17;94916.44;;;31.12;31.83
52957;BME280;38819;42.692;23.342;2022-08-19T12:03:46;94911.28;;;31.10;31.71
52957;BME280;38819;42.692;23.342;2022-08-19T12:06:17;94912.78;;;31.15;31.56
52957;BME280;38819;42.692;23.342;2022-08-19T12:08:44;94901.53;;;31.18;32.03
52957;BME280;38819;42.692;23.342;2022-08-19T12:11:11;94899.28;;;31.30;31.76
52957;BME280;38819;42.692;23.342;2022-08-19T12:13:38;94890.38;;;31.35;31.20
52957;BME280;38819;42.692;23.342;2022-08-19T12:16:15;94891.16;;;31.35;31.58
52957;BME280;38819;42.692;23.342;2022-08-19T12:18:42;94887.78;;;31.44;32.12
52957;BME280;38819;42.692;23.342;2022-08-19T12:21:12;94885.31;;;31.46;31.82
52957;BME280;38819;42.692;23.342;2022-08-19T12:23:39;94875.22;;;31.52;31.35
52957;BME280;38819;42.692;23.342;2022-08-19T12:26:05;94877.94;;;31.56;31.28
52957;BME280;38819;42.692;23.342;2022-08-19T12:28:30;94875.72;;;31.64;32.12
52957;BME280;38819;42.692;23.342;2022-08-19T12:30:56;94863.69;;;31.67;32.04
52957;BME280;38819;42.692;23.342;2022-08-19T12:33:22;94860.00;;;31.70;31.40
52957;BME280;38819;42.692;23.342;2022-08-19T12:35:50;94861.66;;;31.67;30.93
52957;BME280;38819;42.692;23.342;2022-08-19T12:38:16;94866.38;;;31.70;30.80
52957;BME280;38819;42.692;23.342;2022-08-19T12:40:45;94867.75;;;31.79;31.33
52957;BME280;38819;42.692;23.342;2022-08-19T12:43:11;94861.41;;;31.78;31.43
52957;BME280;38819;42.692;23.342;2022-08-19T12:45:36;94856.06;;;31.84;31.15
52957;BME280;38819;42.692;23.342;2022-08-19T12:48:02;94858.34;;;31.72;30.57
52957;BME280;38819;42.692;23.342;2022-08-19T12:50:28;94858.72;;;31.74;31.02
52957;BME280;38819;42.692;23.342;2022-08-19T12:52:54;94856.59;;;31.79;30.96
52957;BME280;38819;42.692;23.342;2022-08-19T12:55:19;94861.63;;;31.84;31.17
52957;BME280;38819;42.692;23.342;2022-08-19T12:57:45;94852.81;;;31.85;31.45
52957;BME280;38819;42.692;23.342;2022-08-19T13:00:16;94844.00;;;31.87;30.72
52957;BME280;38819;42.692;23.342;2022-08-19T13:02:46;94848.91;;;31.83;30.90
52957;BME280;38819;42.692;23.342;2022-08-19T13:05:14;94836.59;;;31.80;30.72
52957;BME280;38819;42.692;23.342;2022-08-19T13:07:41;94842.44;;;31.86;31.02
52957;BME280;38819;42.692;23.342;2022-08-19T13:10:08;94836.50;;;31.84;30.44
52957;BME280;38819;42.692;23.342;2022-08-19T13:12:35;94840.88;;;31.85;30.31